createdAt,value
2024-04-08T00:00:42.857Z,7.97
2024-04-08T00:03:10.336Z,9.10
2024-04-08T00:05:38.391Z,10.30
2024-04-08T00:08:06.080Z,6.78
2024-04-08T00:10:33.425Z,6.13
2024-04-08T00:13:01.216Z,7.80
2024-04-08T00:15:28.614Z,6.63
2024-04-08T00:17:55.595Z,7.88
2024-04-08T00:20:23.085Z,7.80
2024-04-08T00:22:53.442Z,6.50
2024-04-08T00:25:21.040Z,11.38
2024-04-08T00:27:48.004Z,9.27
2024-04-08T00:30:15.362Z,9.65
2024-04-08T00:32:42.425Z,10.38
2024-04-08T00:35:09.876Z,10.25
2024-04-08T00:37:37.435Z,8.65
2024-04-08T00:40:04.923Z,8.73
2024-04-08T00:42:32.289Z,9.70
2024-04-08T00:44:59.663Z,9.10
2024-04-08T00:47:27.142Z,7.57
2024-04-08T00:49:54.270Z,8.27
2024-04-08T00:52:21.646Z,9.33
2024-04-08T00:54:49.070Z,9.43
2024-04-08T00:57:16.799Z,7.72
2024-04-08T00:59:44.222Z,8.60
2024-04-08T01:02:11.625Z,10.20
2024-04-08T01:04:39.163Z,7.37
2024-04-08T01:07:06.497Z,10.02
2024-04-08T01:09:34.013Z,9.40
2024-04-08T01:12:00.978Z,8.60
2024-04-08T01:14:28.364Z,11.95
2024-04-08T01:16:55.726Z,8.70
2024-04-08T01:19:25.898Z,12.75
2024-04-08T01:21:52.855Z,14.02
2024-04-08T01:24:20.230Z,10.15
2024-04-08T01:26:47.185Z,10.10
2024-04-08T01:29:14.576Z,8.47
2024-04-08T01:31:41.503Z,8.52
2024-04-08T01:34:08.863Z,6.93
2024-04-08T01:36:36.220Z,9.77
2024-04-08T01:39:03.197Z,10.43
2024-04-08T01:41:30.619Z,11.37
2024-04-08T01:43:58.025Z,10.48
2024-04-08T01:46:25.409Z,8.45
2024-04-08T01:48:52.348Z,8.40
2024-04-08T01:51:19.669Z,12.88
2024-04-08T01:53:47.155Z,8.97
2024-04-08T01:56:14.099Z,11.10
2024-04-08T01:58:41.033Z,9.05
2024-04-08T02:01:07.989Z,10.68
2024-04-08T02:03:35.423Z,7.90
2024-04-08T02:06:02.860Z,9.10
2024-04-08T02:08:30.292Z,10.82
2024-04-08T02:10:57.756Z,7.15
2024-04-08T02:13:25.179Z,8.75
2024-04-08T02:15:52.123Z,9.57
2024-04-08T02:18:19.455Z,8.77
2024-04-08T02:20:46.569Z,7.90
2024-04-08T02:23:13.955Z,11.18
2024-04-08T02:25:43.806Z,8.50
2024-04-08T02:28:11.206Z,8.75
2024-04-08T02:30:39.403Z,9.40
2024-04-08T02:33:07.363Z,7.18
2024-04-08T02:35:41.116Z,10.27
2024-04-08T02:38:09.019Z,9.35
2024-04-08T02:40:36.448Z,9.30
2024-04-08T02:43:05.223Z,12.30
2024-04-08T02:45:32.226Z,11.02
2024-04-08T02:47:59.990Z,8.15
2024-04-08T02:50:27.556Z,11.80
2024-04-08T02:52:54.552Z,10.52
2024-04-08T02:55:21.587Z,13.43
2024-04-08T02:57:49.808Z,7.15
2024-04-08T03:00:16.960Z,10.00
2024-04-08T03:02:46.894Z,9.30
2024-04-08T03:05:14.698Z,7.97
2024-04-08T03:07:42.049Z,8.53
2024-04-08T03:10:09.577Z,9.35
2024-04-08T03:12:37.300Z,10.85
2024-04-08T03:15:04.798Z,10.82
2024-04-08T03:17:31.776Z,8.85
2024-04-08T03:19:59.473Z,11.97
2024-04-08T03:22:27.067Z,7.50
2024-04-08T03:24:54.484Z,8.88
2024-04-08T03:27:21.422Z,11.35
2024-04-08T03:29:48.910Z,10.57
2024-04-08T03:32:16.332Z,8.93
2024-04-08T03:34:44.808Z,10.82
2024-04-08T03:37:12.558Z,10.95
2024-04-08T03:39:39.470Z,9.57
2024-04-08T03:42:07.806Z,7.72
2024-04-08T03:44:34.777Z,8.57
2024-04-08T03:47:02.364Z,8.65
2024-04-08T03:49:29.796Z,10.77
2024-04-08T03:51:56.698Z,10.45
2024-04-08T03:54:24.046Z,9.30
2024-04-08T03:56:51.391Z,11.80
2024-04-08T03:59:18.916Z,10.88
2024-04-08T04:01:46.258Z,9.90
2024-04-08T04:04:13.210Z,9.40
2024-04-08T04:06:40.572Z,9.57
2024-04-08T04:09:09.045Z,8.33
2024-04-08T04:11:35.999Z,12.60
2024-04-08T04:14:03.994Z,11.02
2024-04-08T04:16:31.567Z,9.50
2024-04-08T04:18:58.524Z,9.45
2024-04-08T04:21:25.876Z,9.57
2024-04-08T04:23:53.262Z,7.93
2024-04-08T04:26:21.342Z,8.75
2024-04-08T04:28:48.719Z,11.00
2024-04-08T04:31:16.067Z,10.10
2024-04-08T04:33:43.487Z,10.83
2024-04-08T04:36:10.819Z,9.63
2024-04-08T04:38:38.217Z,10.80
2024-04-08T04:41:07.054Z,9.85
2024-04-08T04:43:35.396Z,9.35
2024-04-08T04:46:02.770Z,10.43
2024-04-08T04:48:30.205Z,8.35
2024-04-08T04:50:57.282Z,8.25
2024-04-08T04:53:24.226Z,13.27
2024-04-08T04:55:52.823Z,13.60
2024-04-08T04:58:20.367Z,9.93
2024-04-08T05:00:48.416Z,8.93
2024-04-08T05:03:15.386Z,10.25
2024-04-08T05:05:42.800Z,8.63
2024-04-08T05:08:10.233Z,10.45
2024-04-08T05:10:37.372Z,8.27
2024-04-08T05:13:04.724Z,10.10
2024-04-08T05:15:32.188Z,11.00
2024-04-08T05:17:59.660Z,9.63
2024-04-08T05:20:30.139Z,8.63
2024-04-08T05:22:57.127Z,8.70
2024-04-08T05:25:24.100Z,9.32
2024-04-08T05:27:51.051Z,8.13
2024-04-08T05:30:18.523Z,10.30
2024-04-08T05:32:45.918Z,9.25
2024-04-08T05:35:12.881Z,13.53
2024-04-08T05:37:40.318Z,10.52
2024-04-08T05:40:10.488Z,9.30
2024-04-08T05:42:37.445Z,9.82
2024-04-08T05:45:07.169Z,10.35
2024-04-08T05:47:34.640Z,9.33
2024-04-08T05:50:02.298Z,12.88
2024-04-08T05:52:29.678Z,8.50
2024-04-08T05:54:57.077Z,10.25
2024-04-08T05:57:25.076Z,13.40
2024-04-08T05:59:52.486Z,12.10
2024-04-08T06:02:19.713Z,13.52
2024-04-08T06:04:49.870Z,12.98
2024-04-08T06:07:19.606Z,10.95
2024-04-08T06:09:46.554Z,7.93
2024-04-08T06:12:13.911Z,9.97
2024-04-08T06:14:41.055Z,7.53
2024-04-08T06:17:08.477Z,9.07
2024-04-08T06:19:35.860Z,9.70
2024-04-08T06:22:03.237Z,9.77
2024-04-08T06:24:30.201Z,10.00
2024-04-08T06:26:57.606Z,7.65
2024-04-08T06:29:24.563Z,11.40
2024-04-08T06:31:51.507Z,12.63
2024-04-08T06:34:18.866Z,8.65
2024-04-08T06:36:46.236Z,8.60
2024-04-08T06:39:13.244Z,11.75
2024-04-08T06:41:42.107Z,12.40
2024-04-08T06:44:09.708Z,9.70
2024-04-08T06:46:37.068Z,9.13
2024-04-08T06:49:04.440Z,11.43
2024-04-08T06:51:32.984Z,10.48
2024-04-08T06:54:00.417Z,9.38
2024-04-08T06:56:27.803Z,15.30
2024-04-08T06:58:55.171Z,11.40
2024-04-08T07:01:22.815Z,12.70
2024-04-08T07:03:50.263Z,11.02
2024-04-08T07:06:17.675Z,8.70
2024-04-08T07:08:45.083Z,9.10
2024-04-08T07:11:12.058Z,9.13
2024-04-08T07:13:39.564Z,11.63
2024-04-08T07:16:07.013Z,11.43
2024-04-08T07:18:34.354Z,9.95
2024-04-08T07:21:03.913Z,8.63
2024-04-08T07:23:31.403Z,11.90
2024-04-08T07:25:58.363Z,10.37
2024-04-08T07:28:25.970Z,12.05
2024-04-08T07:30:53.364Z,10.07
2024-04-08T07:33:20.870Z,16.08
2024-04-08T07:35:47.906Z,13.52
2024-04-08T07:38:15.328Z,15.80
2024-04-08T07:40:43.619Z,15.13
2024-04-08T07:43:10.992Z,13.05
2024-04-08T07:45:39.954Z,12.43
2024-04-08T07:48:08.258Z,10.38
2024-04-08T07:50:38.338Z,9.87
2024-04-08T07:53:05.962Z,12.48
2024-04-08T07:55:33.355Z,13.38
2024-04-08T07:58:00.723Z,13.63
2024-04-08T08:00:28.422Z,10.38
2024-04-08T08:02:55.771Z,11.73
2024-04-08T08:05:23.149Z,12.23
2024-04-08T08:07:51.246Z,10.13
2024-04-08T08:10:21.657Z,9.05
2024-04-08T08:12:49.107Z,10.43
2024-04-08T08:15:16.749Z,11.83
2024-04-08T08:17:44.206Z,8.77
2024-04-08T08:20:11.279Z,12.40
2024-04-08T08:22:38.366Z,9.75
2024-04-08T08:25:05.897Z,10.48
2024-04-08T08:27:32.894Z,9.48
2024-04-08T08:29:59.881Z,11.60
2024-04-08T08:32:26.983Z,13.30
2024-04-08T08:34:54.758Z,9.77
2024-04-08T08:37:22.127Z,9.55
2024-04-08T08:39:51.549Z,9.55
2024-04-08T08:42:22.945Z,8.90
2024-04-08T08:44:56.508Z,10.65
2024-04-08T08:47:24.584Z,12.40
2024-04-08T08:49:56.601Z,8.43
2024-04-08T08:52:24.085Z,9.73
2024-04-08T08:54:54.774Z,12.70
2024-04-08T08:57:23.034Z,10.98
2024-04-08T08:59:52.471Z,11.23
2024-04-08T09:02:19.901Z,13.52
2024-04-08T09:04:49.191Z,13.90
2024-04-08T09:07:16.898Z,10.50
2024-04-08T09:09:54.550Z,11.18
2024-04-08T09:12:22.345Z,10.48
2024-04-08T09:14:50.665Z,9.18
2024-04-08T09:17:18.100Z,11.80
2024-04-08T09:19:45.456Z,12.00
2024-04-08T09:22:13.181Z,12.10
2024-04-08T09:24:40.303Z,10.60
2024-04-08T09:27:08.231Z,10.57
2024-04-08T09:29:35.588Z,9.10
2024-04-08T09:32:03.127Z,8.57
2024-04-08T09:34:33.299Z,11.80
2024-04-08T09:37:01.713Z,9.52
2024-04-08T09:39:31.206Z,9.55
2024-04-08T09:42:00.285Z,16.92
2024-04-08T09:44:32.021Z,10.85
2024-04-08T09:47:03.227Z,8.98
2024-04-08T09:49:41.596Z,13.48
2024-04-08T09:52:14.738Z,12.30
2024-04-08T09:54:41.750Z,12.30
2024-04-08T09:57:11.818Z,9.90
2024-04-08T09:59:39.778Z,15.75
2024-04-08T10:02:17.126Z,8.90
2024-04-08T10:04:44.724Z,10.55
2024-04-08T10:07:12.979Z,8.95
2024-04-08T10:09:40.535Z,12.35
2024-04-08T10:12:09.775Z,11.13
2024-04-08T10:14:37.217Z,11.43
2024-04-08T10:17:04.711Z,10.02
2024-04-08T10:19:32.084Z,9.30
2024-04-08T10:22:03.446Z,7.85
2024-04-08T10:24:39.220Z,12.00
2024-04-08T10:27:09.574Z,9.57
2024-04-08T10:29:37.712Z,11.50
2024-04-08T10:32:08.158Z,8.88
2024-04-08T10:34:36.007Z,10.88
2024-04-08T10:37:03.708Z,8.65
2024-04-08T10:39:31.046Z,11.38
2024-04-08T10:41:59.756Z,10.32
2024-04-08T10:44:33.089Z,9.93
2024-04-08T10:47:00.997Z,7.32
2024-04-08T10:49:28.079Z,9.48
2024-04-08T10:51:55.390Z,6.32
2024-04-08T10:54:22.417Z,9.65
2024-04-08T10:56:50.341Z,10.45
2024-04-08T10:59:17.768Z,7.53
2024-04-08T11:01:45.511Z,8.13
2024-04-08T11:04:13.352Z,9.50
2024-04-08T11:06:41.059Z,10.38
2024-04-08T11:09:08.157Z,8.48
2024-04-08T11:11:35.179Z,11.25
2024-04-08T11:14:06.008Z,10.80
2024-04-08T11:16:33.902Z,9.95
2024-04-08T11:19:02.564Z,9.50
2024-04-08T11:21:29.705Z,11.27
2024-04-08T11:23:57.178Z,9.18
2024-04-08T11:26:24.203Z,8.88
2024-04-08T11:28:51.572Z,8.57
2024-04-08T11:31:18.907Z,8.65
2024-04-08T11:33:46.630Z,10.88
2024-04-08T11:36:14.155Z,9.50
2024-04-08T11:38:44.186Z,8.90
2024-04-08T11:41:11.576Z,9.85
2024-04-08T11:43:39.273Z,10.20
2024-04-08T11:46:07.781Z,13.50
2024-04-08T11:48:39.205Z,9.82
2024-04-08T11:51:06.839Z,9.00
2024-04-08T11:53:34.515Z,9.52
2024-04-08T11:56:02.292Z,8.00
2024-04-08T11:58:29.449Z,9.43
2024-04-08T12:00:57.001Z,11.32
2024-04-08T12:03:24.078Z,8.35
2024-04-08T12:05:51.580Z,10.50
2024-04-08T12:08:19.004Z,11.07
2024-04-08T12:10:46.378Z,8.43
2024-04-08T12:13:18.400Z,7.72
2024-04-08T12:15:46.301Z,7.80
2024-04-08T12:18:13.911Z,11.25
2024-04-08T12:20:41.337Z,8.73
2024-04-08T12:23:12.787Z,9.13
2024-04-08T12:25:40.661Z,8.27
2024-04-08T12:28:10.341Z,8.25
2024-04-08T12:30:37.741Z,9.55
2024-04-08T12:33:05.374Z,8.98
2024-04-08T12:35:32.909Z,9.23
2024-04-08T12:38:00.306Z,11.13
2024-04-08T12:40:27.958Z,14.00
2024-04-08T12:42:55.335Z,14.32
2024-04-08T12:45:22.689Z,10.50
2024-04-08T12:47:50.464Z,10.68
2024-04-08T12:50:17.676Z,9.32
2024-04-08T12:52:45.288Z,9.57
2024-04-08T12:55:12.555Z,7.55
2024-04-08T12:57:42.911Z,10.18
2024-04-08T13:00:12.204Z,10.38
2024-04-08T13:02:39.631Z,10.57
2024-04-08T13:05:07.228Z,10.25
2024-04-08T13:07:34.659Z,11.95
2024-04-08T13:10:02.007Z,12.77
2024-04-08T13:12:29.531Z,10.15
2024-04-08T13:14:56.541Z,10.75
2024-04-08T13:17:24.012Z,9.85
2024-04-08T13:19:51.006Z,13.45
2024-04-08T13:22:18.370Z,13.75
2024-04-08T13:24:48.067Z,10.27
2024-04-08T13:27:15.529Z,14.07
2024-04-08T13:29:42.545Z,16.25
2024-04-08T13:32:12.477Z,12.35
2024-04-08T13:34:39.621Z,16.50
2024-04-08T13:37:07.011Z,12.13
2024-04-08T13:39:34.450Z,12.73
2024-04-08T13:42:01.492Z,15.10
2024-04-08T13:44:28.459Z,14.50
2024-04-08T13:46:55.848Z,14.80
2024-04-08T13:49:23.292Z,14.65
2024-04-08T13:51:54.577Z,13.80
2024-04-08T13:54:26.943Z,13.70
2024-04-08T13:56:54.295Z,20.35
2024-04-08T13:59:22.659Z,13.52
2024-04-08T14:01:50.402Z,16.50
2024-04-08T14:04:19.417Z,13.48
2024-04-08T14:06:46.519Z,15.27
2024-04-08T14:09:13.742Z,13.65
2024-04-08T14:11:44.531Z,12.43
2024-04-08T14:14:12.896Z,13.73
2024-04-08T14:16:40.402Z,12.33
2024-04-08T14:19:07.428Z,16.55
2024-04-08T14:21:36.850Z,13.00
2024-04-08T14:24:04.534Z,11.63
2024-04-08T14:26:32.054Z,11.30
2024-04-08T14:28:59.061Z,11.90
2024-04-08T14:31:26.768Z,11.10
2024-04-08T14:33:55.191Z,11.13
2024-04-08T14:36:22.341Z,11.65
2024-04-08T14:39:05.399Z,11.85
2024-04-08T14:41:36.380Z,12.80
2024-04-08T14:44:10.420Z,10.82
2024-04-08T14:46:41.976Z,12.25
2024-04-08T14:49:09.414Z,14.35
2024-04-08T14:51:40.135Z,11.55
2024-04-08T14:54:09.299Z,12.77
2024-04-08T14:56:37.145Z,10.35
2024-04-08T14:59:04.494Z,9.88
2024-04-08T15:01:31.865Z,11.98
2024-04-08T15:03:59.632Z,10.98
2024-04-08T15:06:27.301Z,10.13
2024-04-08T15:08:54.400Z,12.05
2024-04-08T15:11:25.722Z,12.02
2024-04-08T15:13:53.220Z,9.32
2024-04-08T15:16:20.610Z,10.95
2024-04-08T15:18:48.092Z,11.00
2024-04-08T15:21:15.182Z,9.50
2024-04-08T15:23:42.612Z,10.55
2024-04-08T15:26:10.254Z,10.43
2024-04-08T15:28:37.270Z,8.35
2024-04-08T15:31:08.056Z,10.63
2024-04-08T15:33:35.756Z,10.15
2024-04-08T15:36:06.355Z,9.88
2024-04-08T15:38:34.062Z,11.05
2024-04-08T15:41:01.855Z,11.40
2024-04-08T15:43:29.879Z,9.37
2024-04-08T15:46:00.569Z,10.55
2024-04-08T15:48:29.524Z,9.27
2024-04-08T15:50:57.010Z,10.65
2024-04-08T15:53:24.576Z,8.55
2024-04-08T15:55:51.535Z,11.23
2024-04-08T15:58:18.930Z,12.80
2024-04-08T16:00:56.014Z,8.13
2024-04-08T16:03:23.517Z,11.32
2024-04-08T16:05:51.435Z,11.02
2024-04-08T16:08:18.963Z,10.90
2024-04-08T16:10:46.369Z,10.13
2024-04-08T16:13:13.341Z,15.07
2024-04-08T16:15:48.878Z,9.23
2024-04-08T16:18:15.887Z,9.13
2024-04-08T16:20:43.600Z,11.77
2024-04-08T16:23:24.503Z,10.93
2024-04-08T16:25:59.864Z,11.10
2024-04-08T16:28:27.359Z,12.57
2024-04-08T16:31:05.408Z,10.90
2024-04-08T16:33:32.995Z,11.30
2024-04-08T16:36:00.902Z,18.55
2024-04-08T16:38:28.694Z,10.48
2024-04-08T16:40:56.159Z,12.52
2024-04-08T16:43:24.889Z,14.02
2024-04-08T16:45:56.032Z,8.90
2024-04-08T16:48:26.069Z,10.50
2024-04-08T16:50:57.412Z,12.57
2024-04-08T16:53:25.117Z,17.52
2024-04-08T16:55:56.110Z,9.80
2024-04-08T16:58:24.002Z,9.93
2024-04-08T17:00:52.001Z,13.13
2024-04-08T17:03:19.911Z,9.10
2024-04-08T17:05:51.189Z,11.40
2024-04-08T17:08:18.140Z,11.00
2024-04-08T17:10:45.229Z,10.87
2024-04-08T17:13:12.675Z,10.13
2024-04-08T17:15:39.690Z,10.35
2024-04-08T17:18:07.856Z,13.60
2024-04-08T17:20:35.015Z,10.27
2024-04-08T17:23:02.623Z,15.45
2024-04-08T17:25:30.101Z,13.48
2024-04-08T17:27:57.001Z,11.13
2024-04-08T17:30:24.401Z,8.95
2024-04-08T17:32:51.899Z,13.02
2024-04-08T17:35:21.619Z,11.90
2024-04-08T17:37:49.450Z,14.15
2024-04-08T17:40:16.835Z,15.50
2024-04-08T17:42:45.136Z,9.23
2024-04-08T17:45:13.220Z,12.93
2024-04-08T17:47:40.390Z,14.07
2024-04-08T17:50:08.242Z,11.45
2024-04-08T17:52:35.874Z,10.77
2024-04-08T17:55:03.247Z,9.20
2024-04-08T17:57:30.797Z,11.88
2024-04-08T17:59:58.564Z,11.82
2024-04-08T18:02:28.486Z,24.73
2024-04-08T18:04:57.213Z,15.52
2024-04-08T18:07:24.935Z,11.25
2024-04-08T18:09:54.889Z,17.17
2024-04-08T18:12:21.885Z,17.35
2024-04-08T18:14:49.387Z,12.80
2024-04-08T18:17:21.210Z,14.93
2024-04-08T18:19:49.331Z,19.98
2024-04-08T18:22:16.696Z,12.85
2024-04-08T18:24:44.211Z,16.73
2024-04-08T18:27:11.203Z,15.60
2024-04-08T18:29:38.174Z,14.80
2024-04-08T18:32:05.821Z,17.08
2024-04-08T18:34:32.900Z,26.17
2024-04-08T18:37:00.401Z,18.00
2024-04-08T18:39:28.809Z,18.15
2024-04-08T18:41:55.751Z,19.08
2024-04-08T18:44:22.779Z,14.13
2024-04-08T18:46:49.699Z,15.35
2024-04-08T18:49:16.721Z,18.30
2024-04-08T18:51:44.253Z,18.35
2024-04-08T18:54:11.698Z,17.92
2024-04-08T18:56:39.135Z,15.98
2024-04-08T18:59:06.492Z,20.85
2024-04-08T19:01:34.025Z,20.55
2024-04-08T19:04:01.602Z,16.08
2024-04-08T19:06:28.723Z,19.00
2024-04-08T19:08:57.106Z,16.15
2024-04-08T19:11:32.087Z,16.95
2024-04-08T19:14:04.829Z,17.70
2024-04-08T19:16:32.892Z,21.02
2024-04-08T19:19:00.439Z,18.42
2024-04-08T19:21:27.558Z,20.85
2024-04-08T19:23:54.676Z,18.73
2024-04-08T19:26:22.067Z,17.17
2024-04-08T19:28:49.782Z,15.88
2024-04-08T19:31:18.064Z,18.15
2024-04-08T19:33:45.597Z,16.58
2024-04-08T19:36:13.007Z,21.85
2024-04-08T19:38:40.553Z,21.52
2024-04-08T19:41:08.031Z,18.83
2024-04-08T19:43:35.443Z,18.88
2024-04-08T19:46:14.453Z,21.05
2024-04-08T19:48:43.287Z,19.95
2024-04-08T19:51:11.423Z,19.45
2024-04-08T19:53:39.396Z,20.92
2024-04-08T19:56:13.412Z,27.20
2024-04-08T19:58:41.511Z,22.98
2024-04-08T20:01:09.129Z,22.95
2024-04-08T20:03:43.176Z,23.33
2024-04-08T20:06:10.749Z,19.88
2024-04-08T20:08:38.199Z,22.35
2024-04-08T20:11:07.485Z,19.73
2024-04-08T20:13:34.881Z,25.17
2024-04-08T20:16:16.126Z,24.08
2024-04-08T20:18:44.096Z,19.48
2024-04-08T20:21:13.172Z,20.80
2024-04-08T20:23:40.294Z,21.30
2024-04-08T20:26:07.989Z,26.80
2024-04-08T20:28:35.273Z,22.05
2024-04-08T20:31:07.234Z,23.63
2024-04-08T20:33:35.599Z,24.77
2024-04-08T20:36:13.453Z,23.20
2024-04-08T20:38:42.996Z,22.63
2024-04-08T20:41:13.815Z,26.58
2024-04-08T20:43:42.132Z,23.17
2024-04-08T20:46:09.887Z,21.33
2024-04-08T20:48:37.656Z,24.23
2024-04-08T20:51:06.897Z,21.15
2024-04-08T20:53:34.495Z,20.27
2024-04-08T20:56:02.274Z,21.42
2024-04-08T20:58:33.577Z,20.67
2024-04-08T21:01:11.773Z,23.50
2024-04-08T21:03:40.103Z,21.48
2024-04-08T21:06:09.205Z,22.15
2024-04-08T21:08:41.058Z,23.88
2024-04-08T21:11:13.114Z,20.95
2024-04-08T21:13:41.017Z,22.70
2024-04-08T21:16:08.525Z,22.05
2024-04-08T21:18:36.677Z,21.13
2024-04-08T21:21:13.695Z,26.27
2024-04-08T21:23:44.828Z,23.25
2024-04-08T21:26:19.479Z,22.02
2024-04-08T21:28:48.223Z,23.48
2024-04-08T21:31:16.299Z,23.23
2024-04-08T21:33:47.334Z,18.70
2024-04-08T21:36:15.311Z,24.95
2024-04-08T21:38:42.730Z,21.23
2024-04-08T21:41:11.348Z,19.25
2024-04-08T21:43:39.160Z,25.52
2024-04-08T21:46:07.429Z,22.73
2024-04-08T21:48:35.192Z,25.83
2024-04-08T21:51:05.637Z,23.70
2024-04-08T21:53:32.860Z,26.38
2024-04-08T21:56:05.268Z,28.67
2024-04-08T21:58:34.952Z,22.00
2024-04-08T22:01:06.041Z,24.75
2024-04-08T22:03:34.231Z,23.77
2024-04-08T22:06:02.080Z,19.85
2024-04-08T22:08:29.831Z,21.30
2024-04-08T22:10:57.819Z,25.00
2024-04-08T22:13:25.443Z,25.95
2024-04-08T22:15:52.866Z,22.25
2024-04-08T22:18:24.659Z,25.27
2024-04-08T22:20:53.318Z,24.42
2024-04-08T22:23:21.332Z,24.77
2024-04-08T22:25:48.976Z,21.77
2024-04-08T22:28:16.490Z,22.27
2024-04-08T22:30:43.942Z,22.95
2024-04-08T22:33:11.486Z,26.35
2024-04-08T22:35:39.210Z,21.23
2024-04-08T22:38:06.158Z,22.67
2024-04-08T22:40:33.148Z,22.60
2024-04-08T22:43:00.532Z,22.20
2024-04-08T22:45:27.541Z,23.85
2024-04-08T22:47:54.772Z,23.88
2024-04-08T22:50:22.266Z,19.90
2024-04-08T22:52:49.769Z,26.75
2024-04-08T22:55:16.920Z,24.83
2024-04-08T22:57:44.934Z,29.92
2024-04-08T23:00:14.140Z,26.42
2024-04-08T23:02:42.151Z,29.75
2024-04-08T23:05:10.220Z,22.35
2024-04-08T23:07:37.712Z,25.77
2024-04-08T23:10:06.053Z,28.30
2024-04-08T23:12:33.742Z,26.88
2024-04-08T23:15:01.087Z,23.85
2024-04-08T23:17:28.650Z,25.75
2024-04-08T23:19:55.627Z,19.77
2024-04-08T23:22:23.005Z,21.30
2024-04-08T23:24:50.380Z,20.75
2024-04-08T23:27:17.384Z,18.77
2024-04-08T23:29:44.379Z,15.45
2024-04-08T23:32:11.718Z,15.48
2024-04-08T23:34:39.675Z,13.57
2024-04-08T23:37:07.303Z,15.18
2024-04-08T23:39:34.797Z,11.82
2024-04-08T23:42:02.234Z,11.63
2024-04-08T23:44:29.801Z,14.75
2024-04-08T23:46:57.210Z,18.13
2024-04-08T23:49:24.679Z,10.38
2024-04-08T23:51:52.047Z,17.15
2024-04-08T23:54:19.450Z,18.10
2024-04-08T23:56:46.866Z,13.68
2024-04-08T23:59:13.800Z,13.50
